createdAt,value
2018-08-23T00:00:51.389Z,34.63
2018-08-23T00:03:31.213Z,43.87
2018-08-23T00:06:10.277Z,37.13
2018-08-23T00:08:51.931Z,36.00
2018-08-23T00:11:34.126Z,37.03
2018-08-23T00:14:10.481Z,44.53
2018-08-23T00:16:45.143Z,39.53
2018-08-23T00:19:18.819Z,36.90
2018-08-23T00:21:52.723Z,40.23
2018-08-23T00:24:26.666Z,49.97
2018-08-23T00:27:02.950Z,39.00
2018-08-23T00:29:38.914Z,43.23
2018-08-23T00:32:14.393Z,41.67
2018-08-23T00:34:50.405Z,43.40
2018-08-23T00:37:26.809Z,40.05
2018-08-23T00:40:07.907Z,37.00
2018-08-23T00:42:43.192Z,41.77
2018-08-23T00:45:23.619Z,36.00
2018-08-23T00:48:01.666Z,45.43
2018-08-23T00:51:09.301Z,44.33
2018-08-23T00:54:16.835Z,34.33
2018-08-23T00:56:54.672Z,41.07
2018-08-23T00:59:31.343Z,41.50
2018-08-23T01:02:10.241Z,36.10
2018-08-23T01:04:46.175Z,46.10
2018-08-23T01:07:21.887Z,34.77
2018-08-23T01:09:51.323Z,30.17
2018-08-23T01:12:21.159Z,44.27
2018-08-23T01:14:52.376Z,36.43
2018-08-23T01:17:21.869Z,42.13
2018-08-23T01:20:01.125Z,33.35
2018-08-23T01:22:30.674Z,35.07
2018-08-23T01:25:01.424Z,41.33
2018-08-23T01:27:36.057Z,35.23
2018-08-23T01:30:06.385Z,36.48
2018-08-23T01:32:35.889Z,36.37
2018-08-23T01:35:06.531Z,42.45
2018-08-23T01:37:39.782Z,35.60
2018-08-23T01:40:15.326Z,37.25
2018-08-23T01:42:51.569Z,28.27
2018-08-23T01:45:21.107Z,34.70
2018-08-23T01:47:53.682Z,24.67
2018-08-23T01:50:23.280Z,32.80
2018-08-23T01:52:54.395Z,34.27
2018-08-23T01:55:24.683Z,27.60
2018-08-23T01:57:54.579Z,41.10
2018-08-23T02:00:43.329Z,30.27
2018-08-23T02:03:12.890Z,27.62
2018-08-23T02:05:43.250Z,27.50
2018-08-23T02:08:12.695Z,27.25
2018-08-23T02:10:42.329Z,36.17
2018-08-23T02:13:16.130Z,36.33
2018-08-23T02:15:50.751Z,32.60
2018-08-23T02:18:20.382Z,38.03
2018-08-23T02:20:55.515Z,33.47
2018-08-23T02:23:25.185Z,28.37
2018-08-23T02:25:54.615Z,37.77
2018-08-23T02:28:24.135Z,42.37
2018-08-23T02:30:54.907Z,38.80
2018-08-23T02:33:24.890Z,35.27
2018-08-23T02:36:22.663Z,36.30
2018-08-23T02:39:04.396Z,38.63
2018-08-23T02:41:33.928Z,37.40
2018-08-23T02:44:03.375Z,29.33
2018-08-23T02:46:33.183Z,32.13
2018-08-23T02:49:02.802Z,32.67
2018-08-23T02:51:44.239Z,35.37
2018-08-23T02:54:15.789Z,36.05
2018-08-23T02:56:49.058Z,28.80
2018-08-23T02:59:18.678Z,33.53
2018-08-23T03:01:49.260Z,37.87
2018-08-23T03:04:20.082Z,37.77
2018-08-23T03:06:53.964Z,32.20
2018-08-23T03:09:25.880Z,33.30
2018-08-23T03:11:56.413Z,34.90
2018-08-23T03:14:26.687Z,34.37
2018-08-23T03:17:18.707Z,33.07
2018-08-23T03:20:06.243Z,39.92
2018-08-23T03:22:35.904Z,32.80
2018-08-23T03:25:08.766Z,40.00
2018-08-23T03:27:38.361Z,43.40
2018-08-23T03:30:10.409Z,40.17
2018-08-23T03:32:39.838Z,38.93
2018-08-23T03:35:10.025Z,39.40
2018-08-23T03:37:39.593Z,47.97
2018-08-23T03:40:10.631Z,34.80
2018-08-23T03:42:40.443Z,26.70
2018-08-23T03:45:15.950Z,35.73
2018-08-23T03:47:50.583Z,38.23
2018-08-23T03:50:20.139Z,34.57
2018-08-23T03:52:51.273Z,37.27
2018-08-23T03:55:23.926Z,38.02
2018-08-23T03:57:58.576Z,39.47
2018-08-23T04:00:33.344Z,35.27
2018-08-23T04:03:04.561Z,35.60
2018-08-23T04:05:34.059Z,36.37
2018-08-23T04:08:03.554Z,38.10
2018-08-23T04:10:33.080Z,43.37
2018-08-23T04:13:02.498Z,36.20
2018-08-23T04:15:32.736Z,35.07
2018-08-23T04:18:10.326Z,33.80
2018-08-23T04:20:55.569Z,35.53
2018-08-23T04:23:25.208Z,40.13
2018-08-23T04:25:54.768Z,38.50
2018-08-23T04:28:24.337Z,38.60
2018-08-23T04:30:53.882Z,37.93
2018-08-23T04:33:23.446Z,38.87
2018-08-23T04:35:52.933Z,39.40
2018-08-23T04:38:22.489Z,42.50
2018-08-23T04:41:09.441Z,46.10
2018-08-23T04:43:38.872Z,36.93
2018-08-23T04:46:12.393Z,45.13
2018-08-23T04:48:42.087Z,44.77
2018-08-23T04:51:11.579Z,50.67
2018-08-23T04:53:41.275Z,44.67
2018-08-23T04:56:10.843Z,43.80
2018-08-23T04:58:41.127Z,48.10
2018-08-23T05:01:11.942Z,46.55
2018-08-23T05:03:41.346Z,44.37
2018-08-23T05:06:10.736Z,41.70
2018-08-23T05:08:40.153Z,42.60
2018-08-23T05:11:09.569Z,41.67
2018-08-23T05:13:39.047Z,41.27
2018-08-23T05:16:08.457Z,50.83
2018-08-23T05:18:37.885Z,40.83
2018-08-23T05:21:07.397Z,39.60
2018-08-23T05:23:36.814Z,44.67
2018-08-23T05:26:11.950Z,47.63
2018-08-23T05:28:43.449Z,46.67
2018-08-23T05:31:12.855Z,42.90
2018-08-23T05:33:42.239Z,46.47
2018-08-23T05:36:18.275Z,45.35
2018-08-23T05:38:47.674Z,49.57
2018-08-23T05:41:17.778Z,50.60
2018-08-23T05:43:53.026Z,53.70
2018-08-23T05:46:22.382Z,53.98
2018-08-23T05:48:51.804Z,52.80
2018-08-23T05:51:21.286Z,59.53
2018-08-23T05:53:53.875Z,57.20
2018-08-23T05:56:23.298Z,52.62
2018-08-23T05:58:54.840Z,58.37
2018-08-23T06:01:24.245Z,52.13
2018-08-23T06:03:53.592Z,51.40
2018-08-23T06:06:22.941Z,58.08
2018-08-23T06:08:57.393Z,56.50
2018-08-23T06:11:26.747Z,52.33
2018-08-23T06:13:56.153Z,55.47
2018-08-23T06:16:25.559Z,52.87
2018-08-23T06:18:54.935Z,58.10
2018-08-23T06:21:24.340Z,48.63
2018-08-23T06:23:54.364Z,52.80
2018-08-23T06:26:35.399Z,54.50
2018-08-23T06:29:04.791Z,56.30
2018-08-23T06:31:34.189Z,52.57
2018-08-23T06:34:03.753Z,45.13
2018-08-23T06:36:37.434Z,51.80
2018-08-23T06:39:13.782Z,50.07
2018-08-23T06:41:43.162Z,47.47
2018-08-23T06:44:12.777Z,48.93
2018-08-23T06:46:42.262Z,47.20
2018-08-23T06:49:11.694Z,51.73
2018-08-23T06:51:41.076Z,43.13
2018-08-23T06:54:10.413Z,48.38
2018-08-23T06:56:39.786Z,48.80
2018-08-23T06:59:09.787Z,47.83
2018-08-23T07:01:44.339Z,46.13
2018-08-23T07:04:14.463Z,50.75
2018-08-23T07:06:43.925Z,46.83
2018-08-23T07:09:15.122Z,47.03
2018-08-23T07:11:44.753Z,48.63
2018-08-23T07:14:15.453Z,49.23
2018-08-23T07:16:46.203Z,50.17
2018-08-23T07:19:29.011Z,48.00
2018-08-23T07:22:00.819Z,45.17
2018-08-23T07:24:46.811Z,50.40
2018-08-23T07:29:52.105Z,53.00
2018-08-23T07:32:22.661Z,53.48
2018-08-23T07:35:00.159Z,50.80
2018-08-23T07:37:30.126Z,48.83
2018-08-23T07:40:04.861Z,45.77
2018-08-23T07:42:35.144Z,49.90
2018-08-23T07:45:04.726Z,45.97
2018-08-23T07:47:36.465Z,49.57
2018-08-23T07:50:07.153Z,49.77
2018-08-23T07:52:37.396Z,46.00
2018-08-23T07:55:08.534Z,46.73
2018-08-23T07:57:38.516Z,47.07
2018-08-23T08:00:27.727Z,46.37
2018-08-23T08:02:57.162Z,46.93
2018-08-23T08:05:29.756Z,46.20
2018-08-23T08:07:59.134Z,44.37
2018-08-23T08:10:36.788Z,44.43
2018-08-23T08:13:06.219Z,39.63
2018-08-23T08:15:35.820Z,40.07
2018-08-23T08:18:16.154Z,41.30
2018-08-23T08:20:50.856Z,38.97
2018-08-23T08:23:20.344Z,37.43
2018-08-23T08:25:49.850Z,37.20
2018-08-23T08:28:19.574Z,39.93
2018-08-23T08:30:56.504Z,37.10
2018-08-23T08:33:26.286Z,35.90
2018-08-23T08:36:00.067Z,34.10
2018-08-23T08:38:30.071Z,37.80
2018-08-23T08:40:59.581Z,35.00
2018-08-23T08:43:28.950Z,33.00
2018-08-23T08:45:59.379Z,34.57
2018-08-23T08:48:33.892Z,30.67
2018-08-23T08:51:17.691Z,30.57
2018-08-23T08:53:47.681Z,30.30
2018-08-23T08:56:22.643Z,28.40
2018-08-23T08:58:52.278Z,28.70
2018-08-23T09:01:21.953Z,25.83
2018-08-23T09:03:51.362Z,27.73
2018-08-23T09:06:34.412Z,24.05
2018-08-23T09:09:14.491Z,23.37
2018-08-23T09:11:43.879Z,22.87
2018-08-23T09:14:13.254Z,24.10
2018-08-23T09:16:42.653Z,23.90
2018-08-23T09:19:14.950Z,23.17
2018-08-23T09:21:45.047Z,23.93
2018-08-23T09:24:27.100Z,23.18
2018-08-23T09:26:56.569Z,23.33
2018-08-23T09:29:38.423Z,22.50
2018-08-23T09:32:28.360Z,22.50
2018-08-23T09:34:59.893Z,23.57
2018-08-23T09:37:30.563Z,19.77
2018-08-23T09:40:00.666Z,25.90
2018-08-23T09:42:34.551Z,22.20
2018-08-23T09:45:11.903Z,18.87
2018-08-23T09:47:41.365Z,21.60
2018-08-23T09:50:10.794Z,21.20
2018-08-23T09:52:41.868Z,24.87
2018-08-23T09:55:12.604Z,24.80
2018-08-23T09:57:42.449Z,24.40
2018-08-23T10:00:14.030Z,24.63
2018-08-23T10:02:49.947Z,23.37
2018-08-23T10:05:24.495Z,24.75
2018-08-23T10:07:59.081Z,24.60
2018-08-23T10:10:33.651Z,24.30
2018-08-23T10:13:08.383Z,26.13
2018-08-23T10:15:43.003Z,25.60
2018-08-23T10:18:17.525Z,24.18
2018-08-23T10:20:52.172Z,25.50
2018-08-23T10:23:22.986Z,24.77
2018-08-23T10:25:53.517Z,25.53
2018-08-23T10:28:24.341Z,26.62
2018-08-23T10:30:53.933Z,31.47
2018-08-23T10:33:23.363Z,28.10
2018-08-23T10:35:54.160Z,26.80
2018-08-23T10:38:24.918Z,28.35
2018-08-23T10:40:58.377Z,27.33
2018-08-23T10:43:32.946Z,26.77
2018-08-23T10:46:06.564Z,26.03
2018-08-23T10:48:35.946Z,26.40
2018-08-23T10:51:06.525Z,27.10
2018-08-23T10:53:35.808Z,27.30
2018-08-23T10:56:06.224Z,26.60
2018-08-23T10:58:35.610Z,27.50
2018-08-23T11:01:06.065Z,25.05
2018-08-23T11:03:35.399Z,26.77
2018-08-23T11:06:06.093Z,25.87
2018-08-23T11:08:37.023Z,28.20
2018-08-23T11:11:11.741Z,27.27
2018-08-23T11:13:46.347Z,30.07
2018-08-23T11:16:20.800Z,29.37
2018-08-23T11:18:55.533Z,26.97
2018-08-23T11:21:24.948Z,25.63
2018-08-23T11:23:54.352Z,22.93
2018-08-23T11:26:25.093Z,23.50
2018-08-23T11:28:54.531Z,23.87
2018-08-23T11:31:28.764Z,21.62
2018-08-23T11:33:58.139Z,21.37
2018-08-23T11:36:27.538Z,21.60
2018-08-23T11:38:56.904Z,21.30
2018-08-23T11:41:27.915Z,21.90
2018-08-23T11:43:57.364Z,20.83
2018-08-23T11:46:26.757Z,19.83
2018-08-23T11:48:56.135Z,18.93
2018-08-23T11:51:25.534Z,16.80
2018-08-23T11:53:54.905Z,18.03
2018-08-23T11:56:24.271Z,16.37
2018-08-23T11:58:53.661Z,18.67
2018-08-23T12:01:23.096Z,19.10
2018-08-23T12:03:52.510Z,18.97
2018-08-23T12:06:21.940Z,20.10
2018-08-23T12:08:51.312Z,20.60
2018-08-23T12:11:20.727Z,22.37
2018-08-23T12:13:51.133Z,20.80
2018-08-23T12:16:20.510Z,19.48
2018-08-23T12:18:49.872Z,20.63
2018-08-23T12:21:19.271Z,22.93
2018-08-23T12:23:48.631Z,19.47
2018-08-23T12:26:18.405Z,21.37
2018-08-23T12:28:52.963Z,18.00
2018-08-23T12:31:22.318Z,19.85
2018-08-23T12:33:51.702Z,18.40
2018-08-23T12:36:26.309Z,19.05
2018-08-23T12:39:00.911Z,18.60
2018-08-23T12:41:35.327Z,18.13
2018-08-23T12:44:04.747Z,16.87
2018-08-23T12:46:34.252Z,17.87
2018-08-23T12:49:03.562Z,17.80
2018-08-23T12:51:33.022Z,18.53
2018-08-23T12:54:02.414Z,19.97
2018-08-23T12:56:31.898Z,17.77
2018-08-23T12:59:01.334Z,18.53
2018-08-23T13:01:30.846Z,18.43
2018-08-23T13:04:00.289Z,19.65
2018-08-23T13:06:29.718Z,19.25
2018-08-23T13:08:59.062Z,20.73
2018-08-23T13:11:28.479Z,18.80
2018-08-23T13:13:57.841Z,15.03
2018-08-23T13:16:27.283Z,13.90
2018-08-23T13:18:56.658Z,13.40
2018-08-23T13:21:26.201Z,12.88
2018-08-23T13:23:55.567Z,15.60
2018-08-23T13:26:29.063Z,13.53
2018-08-23T13:28:58.453Z,13.70
2018-08-23T13:31:27.815Z,15.23
2018-08-23T13:33:57.202Z,12.93
2018-08-23T13:36:26.784Z,12.50
2018-08-23T13:38:56.139Z,10.63
2018-08-23T13:41:25.563Z,13.10
2018-08-23T13:43:55.019Z,12.63
2018-08-23T13:46:24.470Z,11.93
2018-08-23T13:48:53.827Z,12.47
2018-08-23T13:51:23.279Z,12.70
2018-08-23T13:53:52.707Z,12.70
2018-08-23T13:56:22.494Z,12.03
2018-08-23T13:58:52.066Z,12.03
2018-08-23T14:01:25.065Z,10.63
2018-08-23T14:03:55.304Z,14.75
2018-08-23T14:06:24.978Z,13.47
2018-08-23T14:08:54.382Z,12.30
2018-08-23T14:11:23.798Z,12.15
2018-08-23T14:13:53.179Z,12.93
2018-08-23T14:16:22.610Z,12.68
2018-08-23T14:18:52.043Z,11.53
2018-08-23T14:21:21.460Z,13.35
2018-08-23T14:23:50.874Z,12.93
2018-08-23T14:26:20.284Z,13.13
2018-08-23T14:28:49.642Z,15.20
2018-08-23T14:31:19.035Z,13.38
2018-08-23T14:33:48.424Z,12.83
2018-08-23T14:36:17.868Z,11.38
2018-08-23T14:38:47.334Z,12.83
2018-08-23T14:41:16.673Z,9.58
2018-08-23T14:43:46.074Z,10.47
2018-08-23T14:46:20.609Z,10.18
2018-08-23T14:48:51.177Z,10.63
2018-08-23T14:51:20.714Z,11.38
2018-08-23T14:53:52.027Z,10.20
2018-08-23T14:56:26.620Z,11.83
2018-08-23T14:58:56.143Z,12.17
2018-08-23T15:01:25.531Z,12.50
2018-08-23T15:03:54.871Z,13.37
2018-08-23T15:06:24.267Z,14.63
2018-08-23T15:08:53.645Z,14.83
2018-08-23T15:11:23.030Z,14.40
2018-08-23T15:13:52.410Z,13.13
2018-08-23T15:16:21.922Z,13.25
2018-08-23T15:18:51.367Z,16.37
2018-08-23T15:21:20.743Z,15.17
2018-08-23T15:23:50.139Z,15.27
2018-08-23T15:26:25.402Z,15.27
2018-08-23T15:28:54.984Z,13.78
2018-08-23T15:31:24.512Z,11.90
2018-08-23T15:33:54.337Z,15.37
2018-08-23T15:36:23.902Z,17.52
2018-08-23T15:38:54.113Z,18.47
2018-08-23T15:41:23.732Z,12.37
2018-08-23T15:43:53.122Z,12.23
2018-08-23T15:46:23.179Z,10.60
2018-08-23T15:48:53.036Z,10.37
2018-08-23T15:54:04.804Z,10.13
2018-08-23T15:56:34.246Z,9.70
2018-08-23T15:59:03.797Z,8.87
2018-08-23T16:01:33.510Z,7.90
2018-08-23T16:04:03.027Z,7.77
2018-08-23T16:06:32.376Z,7.93
2018-08-23T16:09:01.786Z,5.67
2018-08-23T16:11:32.012Z,5.47
2018-08-23T16:14:01.993Z,5.50
2018-08-23T16:16:36.589Z,5.33
2018-08-23T16:19:17.456Z,5.40
2018-08-23T16:21:51.088Z,3.67
2018-08-23T16:24:20.559Z,9.25
2018-08-23T16:26:55.565Z,7.00
2018-08-23T16:29:30.106Z,5.87
2018-08-23T16:32:00.112Z,8.13
2018-08-23T16:34:30.186Z,5.83
2018-08-23T16:36:59.820Z,5.15
2018-08-23T16:39:29.613Z,5.40
2018-08-23T16:44:41.825Z,4.40
2018-08-23T16:47:12.043Z,5.10
2018-08-23T16:49:41.948Z,4.20
2018-08-23T16:52:12.064Z,5.28
2018-08-23T16:54:42.042Z,5.10
2018-08-23T16:57:11.722Z,5.92
2018-08-23T16:59:41.828Z,5.33
2018-08-23T17:02:11.469Z,7.47
2018-08-23T17:04:42.930Z,6.87
2018-08-23T17:07:13.553Z,6.37
2018-08-23T17:09:42.950Z,6.40
2018-08-23T17:12:12.317Z,6.12
2018-08-23T17:14:41.733Z,7.47
2018-08-23T17:17:16.568Z,6.98
2018-08-23T17:19:45.987Z,6.50
2018-08-23T17:22:15.434Z,9.00
2018-08-23T17:24:44.830Z,7.97
2018-08-23T17:27:14.615Z,7.67
2018-08-23T17:29:44.057Z,8.30
2018-08-23T17:32:13.454Z,7.70
2018-08-23T17:34:42.839Z,9.23
2018-08-23T17:37:12.260Z,9.55
2018-08-23T17:39:41.707Z,10.17
2018-08-23T17:42:11.258Z,10.68
2018-08-23T17:44:40.652Z,11.03
2018-08-23T17:50:07.277Z,12.00
2018-08-23T17:52:36.797Z,10.53
2018-08-23T17:55:08.883Z,10.40
2018-08-23T17:57:38.350Z,11.50
2018-08-23T18:00:07.871Z,10.30
2018-08-23T18:02:37.346Z,11.30
2018-08-23T18:05:08.216Z,11.40
2018-08-23T18:07:37.742Z,12.13
2018-08-23T18:10:08.674Z,11.60
2018-08-23T18:12:38.099Z,12.57
2018-08-23T18:15:09.511Z,12.60
2018-08-23T18:17:39.939Z,12.43
2018-08-23T18:20:09.709Z,13.50
2018-08-23T18:22:39.156Z,13.00
2018-08-23T18:25:08.554Z,14.20
2018-08-23T18:27:38.004Z,14.33
2018-08-23T18:30:07.614Z,14.17
2018-08-23T18:32:37.087Z,13.50
2018-08-23T18:35:06.915Z,13.93
2018-08-23T18:37:37.337Z,13.57
2018-08-23T18:40:06.828Z,13.67
2018-08-23T18:42:36.264Z,12.98
2018-08-23T18:45:06.505Z,12.33
2018-08-23T18:47:35.895Z,16.30
2018-08-23T18:50:05.846Z,12.77
2018-08-23T18:52:35.756Z,12.50
2018-08-23T18:55:06.429Z,12.13
2018-08-23T18:57:36.248Z,12.53
2018-08-23T19:00:08.645Z,12.15
2018-08-23T19:02:38.809Z,10.90
2018-08-23T19:05:10.975Z,12.28
2018-08-23T19:07:43.331Z,10.77
2018-08-23T19:10:13.473Z,9.80
2018-08-23T19:12:43.576Z,9.93
2018-08-23T19:15:13.454Z,13.45
2018-08-23T19:17:44.255Z,9.47
2018-08-23T19:20:14.415Z,10.17
2018-08-23T19:22:44.394Z,10.73
2018-08-23T19:25:14.946Z,9.93
2018-08-23T19:27:46.043Z,11.17
2018-08-23T19:30:16.226Z,9.47
2018-08-23T19:32:46.044Z,5.70
2018-08-23T19:35:16.279Z,3.20
2018-08-23T19:37:46.456Z,3.13
2018-08-23T19:40:16.439Z,2.50
2018-08-23T19:42:46.167Z,1.63
2018-08-23T19:45:16.089Z,3.90
2018-08-23T19:47:51.179Z,2.23
2018-08-23T19:50:21.054Z,3.17
2018-08-23T19:52:50.882Z,2.67
2018-08-23T19:55:21.030Z,2.20
2018-08-23T19:57:50.935Z,3.20
2018-08-23T20:00:21.149Z,3.22
2018-08-23T20:02:51.205Z,2.10
2018-08-23T20:05:21.226Z,2.83
2018-08-23T20:07:53.601Z,4.27
2018-08-23T20:10:23.532Z,3.05
2018-08-23T20:12:53.336Z,2.90
2018-08-23T20:15:24.602Z,2.67
2018-08-23T20:17:54.996Z,2.50
2018-08-23T20:20:24.443Z,2.70
2018-08-23T20:22:53.858Z,2.30
2018-08-23T20:25:23.370Z,2.67
2018-08-23T20:27:52.817Z,2.97
2018-08-23T20:30:22.212Z,3.70
2018-08-23T20:32:52.240Z,2.47
2018-08-23T20:35:22.244Z,2.47
2018-08-23T20:37:51.951Z,3.57
2018-08-23T20:40:21.317Z,2.55
2018-08-23T20:42:50.685Z,2.97
2018-08-23T20:45:20.122Z,3.10
2018-08-23T20:47:50.094Z,3.03
2018-08-23T20:50:20.020Z,4.55
2018-08-23T20:52:49.919Z,4.70
2018-08-23T20:55:19.303Z,3.08
2018-08-23T20:57:48.862Z,2.23
2018-08-23T21:00:18.300Z,1.93
2018-08-23T21:02:47.803Z,1.80
2018-08-23T21:05:17.215Z,3.77
2018-08-23T21:07:46.766Z,2.60
2018-08-23T21:10:16.334Z,3.40
2018-08-23T21:12:45.932Z,3.43
2018-08-23T21:15:15.313Z,7.10
2018-08-23T21:17:46.483Z,7.40
2018-08-23T21:20:16.410Z,8.48
2018-08-23T21:22:46.254Z,11.20
2018-08-23T21:25:16.295Z,8.27
2018-08-23T21:27:46.072Z,6.90
2018-08-23T21:30:16.149Z,11.87
2018-08-23T21:32:45.922Z,11.83
2018-08-23T21:35:15.747Z,13.40
2018-08-23T21:37:45.700Z,8.87
2018-08-23T21:40:15.724Z,10.70
2018-08-23T21:42:45.514Z,17.33
2018-08-23T21:45:15.398Z,11.03
2018-08-23T21:47:45.358Z,11.70
2018-08-23T21:50:15.440Z,10.87
2018-08-23T21:52:45.462Z,11.93
2018-08-23T21:55:15.402Z,12.70
2018-08-23T21:57:45.528Z,11.27
2018-08-23T22:00:20.313Z,8.97
2018-08-23T22:02:52.695Z,13.20
2018-08-23T22:05:22.847Z,9.20
2018-08-23T22:07:53.436Z,9.67
2018-08-23T22:10:23.532Z,11.80
2018-08-23T22:12:53.609Z,8.83
2018-08-23T22:15:26.059Z,12.93
2018-08-23T22:17:55.982Z,12.23
2018-08-23T22:20:25.990Z,9.17
2018-08-23T22:22:56.003Z,10.60
2018-08-23T22:25:25.978Z,11.27
2018-08-23T22:27:56.220Z,11.97
2018-08-23T22:30:26.613Z,9.57
2018-08-23T22:32:56.630Z,12.90
2018-08-23T22:35:28.959Z,11.37
2018-08-23T22:37:58.931Z,10.93
2018-08-23T22:40:28.882Z,13.07
2018-08-23T22:42:58.626Z,10.57
2018-08-23T22:45:28.079Z,9.50
2018-08-23T22:47:57.428Z,10.93
2018-08-23T22:50:26.799Z,10.10
2018-08-23T22:52:56.314Z,9.58
2018-08-23T22:55:25.714Z,11.07
2018-08-23T22:57:55.181Z,13.93
2018-08-23T23:00:29.764Z,12.37
2018-08-23T23:02:59.211Z,8.00
2018-08-23T23:05:28.595Z,9.33
2018-08-23T23:08:02.180Z,9.07
2018-08-23T23:10:38.594Z,8.93
2018-08-23T23:13:15.085Z,9.73
2018-08-23T23:15:53.517Z,13.37
2018-08-23T23:18:31.878Z,11.93
2018-08-23T23:21:09.163Z,8.98
2018-08-23T23:23:46.258Z,11.03
2018-08-23T23:26:22.504Z,8.80
2018-08-23T23:28:59.358Z,9.83
2018-08-23T23:31:33.905Z,8.67
2018-08-23T23:34:09.211Z,9.07
2018-08-23T23:36:47.738Z,9.13
2018-08-23T23:39:23.984Z,10.72
2018-08-23T23:42:01.070Z,9.60
2018-08-23T23:44:37.724Z,9.33
2018-08-23T23:47:13.911Z,13.13
2018-08-23T23:49:49.887Z,13.63
2018-08-23T23:52:25.654Z,11.48
2018-08-23T23:55:03.128Z,9.90
2018-08-23T23:57:40.858Z,9.63
